createdAt,value
2018-05-17T00:01:24.182Z,13.33
2018-05-17T00:03:50.431Z,14.23
2018-05-17T00:06:16.674Z,13.27
2018-05-17T00:08:42.930Z,12.57
2018-05-17T00:11:09.194Z,12.77
2018-05-17T00:13:35.422Z,12.07
2018-05-17T00:16:01.750Z,14.00
2018-05-17T00:18:28.011Z,13.33
2018-05-17T00:20:54.234Z,14.93
2018-05-17T00:23:20.481Z,12.77
2018-05-17T00:25:46.743Z,15.33
2018-05-17T00:28:12.995Z,14.10
2018-05-17T00:30:39.226Z,14.47
2018-05-17T00:33:05.485Z,14.40
2018-05-17T00:35:31.728Z,13.50
2018-05-17T00:37:58.020Z,15.00
2018-05-17T00:40:24.318Z,14.40
2018-05-17T00:42:50.578Z,14.93
2018-05-17T00:45:16.802Z,14.13
2018-05-17T00:47:43.068Z,14.33
2018-05-17T00:50:09.297Z,14.77
2018-05-17T00:52:35.586Z,14.63
2018-05-17T00:55:01.838Z,14.10
2018-05-17T00:57:28.138Z,14.60
2018-05-17T00:59:54.393Z,14.93
2018-05-17T01:02:20.730Z,13.80
2018-05-17T01:04:46.982Z,14.00
2018-05-17T01:07:13.274Z,14.53
2018-05-17T01:09:39.563Z,15.40
2018-05-17T01:12:05.810Z,15.73
2018-05-17T01:14:32.065Z,14.43
2018-05-17T01:16:58.346Z,14.80
2018-05-17T01:19:24.607Z,15.20
2018-05-17T01:21:50.831Z,15.60
2018-05-17T01:24:17.091Z,14.97
2018-05-17T01:26:43.415Z,15.13
2018-05-17T01:29:09.655Z,14.23
2018-05-17T01:31:35.974Z,14.43
2018-05-17T01:34:02.239Z,14.00
2018-05-17T01:36:28.495Z,15.50
2018-05-17T01:38:54.756Z,15.03
2018-05-17T01:41:20.999Z,15.00
2018-05-17T01:43:47.251Z,15.03
2018-05-17T01:46:13.530Z,14.70
2018-05-17T01:48:39.798Z,15.57
2018-05-17T01:51:06.083Z,14.63
2018-05-17T01:53:32.628Z,14.57
2018-05-17T01:55:59.022Z,17.57
2018-05-17T01:58:25.274Z,15.07
2018-05-17T02:00:51.542Z,15.70
2018-05-17T02:03:17.853Z,16.17
2018-05-17T02:05:44.090Z,14.57
2018-05-17T02:08:10.402Z,15.20
2018-05-17T02:10:36.639Z,14.97
2018-05-17T02:13:02.883Z,15.73
2018-05-17T02:15:29.126Z,15.27
2018-05-17T02:17:55.434Z,15.73
2018-05-17T02:20:21.734Z,15.47
2018-05-17T02:22:48.002Z,15.20
2018-05-17T02:25:14.238Z,15.13
2018-05-17T02:27:40.474Z,15.43
2018-05-17T02:30:06.786Z,15.80
2018-05-17T02:32:33.131Z,16.37
2018-05-17T02:34:59.315Z,16.37
2018-05-17T02:37:25.674Z,15.20
2018-05-17T02:39:51.949Z,15.47
2018-05-17T02:42:18.203Z,16.37
2018-05-17T02:44:44.495Z,14.97
2018-05-17T02:47:10.738Z,15.43
2018-05-17T02:49:36.974Z,14.33
2018-05-17T02:52:03.246Z,15.50
2018-05-17T02:54:29.552Z,16.07
2018-05-17T02:56:55.868Z,15.97
2018-05-17T02:59:22.149Z,15.87
2018-05-17T03:01:48.376Z,17.10
2018-05-17T03:04:14.622Z,16.53
2018-05-17T03:06:41.012Z,15.30
2018-05-17T03:09:07.218Z,16.43
2018-05-17T03:11:33.443Z,17.20
2018-05-17T03:13:59.703Z,17.57
2018-05-17T03:16:26.006Z,18.27
2018-05-17T03:18:52.235Z,18.27
2018-05-17T03:21:18.585Z,18.63
2018-05-17T03:23:44.857Z,19.17
2018-05-17T03:26:11.106Z,18.70
2018-05-17T03:28:37.375Z,17.77
2018-05-17T03:31:03.614Z,20.97
2018-05-17T03:33:29.910Z,22.83
2018-05-17T03:35:56.235Z,23.23
2018-05-17T03:38:22.471Z,26.67
2018-05-17T03:40:48.732Z,27.63
2018-05-17T03:43:15.038Z,29.00
2018-05-17T03:45:41.284Z,29.87
2018-05-17T03:48:07.597Z,31.33
2018-05-17T03:50:33.946Z,32.27
2018-05-17T03:53:00.238Z,33.10
2018-05-17T03:55:26.543Z,35.20
2018-05-17T03:57:52.858Z,35.10
2018-05-17T04:00:19.122Z,35.90
2018-05-17T04:02:57.439Z,35.53
2018-05-17T04:05:35.919Z,35.63
2018-05-17T04:08:02.238Z,36.33
2018-05-17T04:10:28.518Z,37.67
2018-05-17T04:12:54.739Z,37.13
2018-05-17T04:15:20.998Z,38.13
2018-05-17T04:17:48.366Z,38.73
2018-05-17T04:20:14.585Z,38.73
2018-05-17T04:22:40.929Z,39.33
2018-05-17T04:25:07.214Z,39.10
2018-05-17T04:27:33.510Z,37.03
2018-05-17T04:30:00.026Z,38.33
2018-05-17T04:32:26.284Z,38.47
2018-05-17T04:34:52.545Z,35.50
2018-05-17T04:37:18.897Z,37.60
2018-05-17T04:39:45.213Z,35.23
2018-05-17T04:42:11.503Z,36.67
2018-05-17T04:44:37.805Z,35.77
2018-05-17T04:47:04.068Z,35.57
2018-05-17T04:49:30.318Z,34.73
2018-05-17T04:51:56.570Z,34.90
2018-05-17T04:54:22.862Z,34.00
2018-05-17T04:56:49.091Z,32.90
2018-05-17T04:59:15.350Z,34.77
2018-05-17T05:01:41.566Z,30.97
2018-05-17T05:04:07.792Z,32.23
2018-05-17T05:06:34.044Z,30.57
2018-05-17T05:09:00.298Z,30.13
2018-05-17T05:11:26.538Z,27.87
2018-05-17T05:13:52.834Z,25.43
2018-05-17T05:16:19.106Z,26.30
2018-05-17T05:18:45.358Z,24.93
2018-05-17T05:21:11.618Z,25.53
2018-05-17T05:23:37.895Z,25.03
2018-05-17T05:26:04.169Z,21.87
2018-05-17T05:28:30.514Z,22.27
2018-05-17T05:30:56.802Z,21.90
2018-05-17T05:33:23.021Z,19.63
2018-05-17T05:35:49.281Z,19.00
2018-05-17T05:38:15.559Z,20.07
2018-05-17T05:40:41.833Z,19.77
2018-05-17T05:43:08.138Z,18.83
2018-05-17T05:45:34.375Z,19.33
2018-05-17T05:48:00.611Z,19.00
2018-05-17T05:50:26.871Z,17.90
2018-05-17T05:52:53.121Z,16.33
2018-05-17T05:55:19.348Z,17.20
2018-05-17T05:57:45.614Z,16.20
2018-05-17T06:00:11.876Z,17.00
2018-05-17T06:02:38.658Z,15.83
2018-05-17T06:05:04.922Z,16.37
2018-05-17T06:07:31.170Z,15.50
2018-05-17T06:09:57.401Z,15.57
2018-05-17T06:12:23.675Z,15.60
2018-05-17T06:14:49.885Z,15.63
2018-05-17T06:17:16.113Z,15.53
2018-05-17T06:19:42.395Z,15.03
2018-05-17T06:22:08.615Z,15.30
2018-05-17T06:24:34.844Z,15.03
2018-05-17T06:27:01.138Z,15.60
2018-05-17T06:29:27.383Z,14.27
2018-05-17T06:31:53.646Z,15.33
2018-05-17T06:34:19.914Z,15.53
2018-05-17T06:36:46.139Z,14.47
2018-05-17T06:39:12.366Z,14.37
2018-05-17T06:41:38.622Z,14.03
2018-05-17T06:44:04.884Z,14.30
2018-05-17T06:46:31.115Z,15.70
2018-05-17T06:48:57.380Z,18.23
2018-05-17T06:51:23.626Z,14.37
2018-05-17T06:53:49.842Z,14.50
2018-05-17T06:56:16.112Z,13.33
2018-05-17T06:58:42.359Z,14.43
2018-05-17T07:01:08.728Z,14.00
2018-05-17T07:03:34.945Z,14.13
2018-05-17T07:06:01.195Z,13.67
2018-05-17T07:08:27.427Z,13.10
2018-05-17T07:10:53.727Z,13.87
2018-05-17T07:13:19.955Z,13.77
2018-05-17T07:15:46.187Z,13.57
2018-05-17T07:18:12.506Z,13.63
2018-05-17T07:20:38.696Z,12.53
2018-05-17T07:23:04.949Z,13.10
2018-05-17T07:25:31.230Z,13.60
2018-05-17T07:27:57.474Z,14.50
2018-05-17T07:30:23.719Z,13.40
2018-05-17T07:32:49.962Z,14.03
2018-05-17T07:35:16.202Z,12.90
2018-05-17T07:37:42.445Z,13.40
2018-05-17T07:40:08.723Z,13.70
2018-05-17T07:42:34.934Z,14.33
2018-05-17T07:45:01.167Z,14.00
2018-05-17T07:47:27.446Z,13.60
2018-05-17T07:49:53.669Z,13.20
2018-05-17T07:52:19.919Z,13.83
2018-05-17T07:54:46.170Z,13.57
2018-05-17T07:57:12.427Z,13.63
2018-05-17T07:59:38.733Z,13.00
2018-05-17T08:02:05.019Z,13.00
2018-05-17T08:04:31.243Z,12.83
2018-05-17T08:06:57.482Z,13.37
2018-05-17T08:09:23.918Z,13.90
2018-05-17T08:11:50.069Z,13.23
2018-05-17T08:14:16.329Z,14.17
2018-05-17T08:16:42.611Z,13.07
2018-05-17T08:19:08.855Z,13.43
2018-05-17T08:21:35.102Z,14.20
2018-05-17T08:24:08.214Z,13.93
2018-05-17T08:26:34.430Z,12.73
2018-05-17T08:29:00.729Z,13.40
2018-05-17T08:31:26.998Z,14.17
2018-05-17T08:33:53.538Z,13.13
2018-05-17T08:36:19.881Z,13.77
2018-05-17T08:38:46.059Z,13.47
2018-05-17T08:41:12.812Z,13.57
2018-05-17T08:43:39.071Z,12.57
2018-05-17T08:46:05.350Z,14.17
2018-05-17T08:48:31.594Z,12.67
2018-05-17T08:50:57.815Z,12.80
2018-05-17T08:53:24.097Z,13.60
2018-05-17T08:55:50.319Z,13.80
2018-05-17T08:58:16.688Z,13.00
2018-05-17T09:00:42.975Z,14.07
2018-05-17T09:03:09.231Z,13.37
2018-05-17T09:05:35.441Z,12.70
2018-05-17T09:08:01.707Z,12.50
2018-05-17T09:10:27.963Z,12.80
2018-05-17T09:12:54.279Z,14.03
2018-05-17T09:15:20.547Z,13.00
2018-05-17T09:17:46.798Z,12.83
2018-05-17T09:20:13.115Z,14.90
2018-05-17T09:22:39.342Z,12.23
2018-05-17T09:25:05.615Z,12.90
2018-05-17T09:27:31.863Z,13.43
2018-05-17T09:29:58.138Z,12.40
2018-05-17T09:32:24.374Z,13.00
2018-05-17T09:34:50.611Z,13.03
2018-05-17T09:37:16.867Z,13.50
2018-05-17T09:39:43.116Z,13.50
2018-05-17T09:42:09.338Z,13.27
2018-05-17T09:44:35.606Z,12.63
2018-05-17T09:47:01.911Z,12.03
2018-05-17T09:49:28.134Z,12.80
2018-05-17T09:51:54.387Z,12.20
2018-05-17T09:54:20.603Z,13.80
2018-05-17T09:56:46.866Z,13.80
2018-05-17T09:59:13.155Z,14.27
2018-05-17T10:01:39.374Z,13.63
2018-05-17T10:04:05.599Z,12.20
2018-05-17T10:06:31.854Z,13.20
2018-05-17T10:08:58.163Z,12.93
2018-05-17T10:11:24.390Z,12.97
2018-05-17T10:13:50.651Z,13.60
2018-05-17T10:16:16.917Z,11.53
2018-05-17T10:18:43.170Z,12.47
2018-05-17T10:21:09.426Z,13.70
2018-05-17T10:23:35.700Z,14.53
2018-05-17T10:26:01.938Z,15.80
2018-05-17T10:28:28.218Z,15.47
2018-05-17T10:30:54.446Z,15.70
2018-05-17T10:33:20.747Z,14.23
2018-05-17T10:35:47.027Z,15.07
2018-05-17T10:38:13.301Z,13.80
2018-05-17T10:40:39.528Z,13.27
2018-05-17T10:43:05.799Z,13.30
2018-05-17T10:45:32.087Z,13.93
2018-05-17T10:47:58.378Z,13.87
2018-05-17T10:50:24.645Z,13.23
2018-05-17T10:52:50.867Z,13.40
2018-05-17T10:55:17.127Z,14.10
2018-05-17T10:57:43.422Z,13.37
2018-05-17T11:00:09.660Z,14.83
2018-05-17T11:02:35.934Z,15.43
2018-05-17T11:05:02.186Z,16.77
2018-05-17T11:07:28.419Z,16.27
2018-05-17T11:09:54.654Z,16.23
2018-05-17T11:12:20.908Z,15.37
2018-05-17T11:14:47.131Z,16.83
2018-05-17T11:17:13.426Z,16.50
2018-05-17T11:19:39.719Z,17.07
2018-05-17T11:22:05.968Z,16.10
2018-05-17T11:24:32.197Z,16.10
2018-05-17T11:26:58.559Z,15.70
2018-05-17T11:29:24.793Z,15.90
2018-05-17T11:31:51.028Z,15.03
2018-05-17T11:34:17.290Z,14.30
2018-05-17T11:36:43.509Z,13.83
2018-05-17T11:39:09.798Z,13.13
2018-05-17T11:41:36.081Z,13.53
2018-05-17T11:44:02.446Z,12.60
2018-05-17T11:46:28.610Z,12.43
2018-05-17T11:48:54.859Z,12.53
2018-05-17T11:51:21.092Z,12.03
2018-05-17T11:53:47.366Z,12.13
2018-05-17T11:56:13.611Z,13.47
2018-05-17T11:58:39.866Z,11.57
2018-05-17T12:01:06.177Z,13.13
2018-05-17T12:03:32.442Z,13.63
2018-05-17T12:05:58.700Z,13.07
2018-05-17T12:08:24.950Z,13.03
2018-05-17T12:10:51.196Z,13.43
2018-05-17T12:13:17.439Z,14.63
2018-05-17T12:15:43.683Z,17.93
2018-05-17T12:18:10.003Z,20.07
2018-05-17T12:20:36.242Z,22.50
2018-05-17T12:23:02.563Z,24.63
2018-05-17T12:25:28.762Z,26.10
2018-05-17T12:27:54.999Z,26.10
2018-05-17T12:30:21.221Z,27.90
2018-05-17T12:32:47.484Z,26.70
2018-05-17T12:35:13.728Z,25.93
2018-05-17T12:37:40.006Z,25.77
2018-05-17T12:40:06.274Z,25.63
2018-05-17T12:42:32.522Z,26.30
2018-05-17T12:44:58.818Z,23.97
2018-05-17T12:47:25.114Z,23.63
2018-05-17T12:49:51.355Z,19.87
2018-05-17T12:52:17.599Z,19.23
2018-05-17T12:54:43.871Z,19.10
2018-05-17T12:57:10.163Z,20.40
2018-05-17T12:59:36.410Z,23.90
2018-05-17T13:02:02.695Z,26.23
2018-05-17T13:04:28.930Z,26.27
2018-05-17T13:06:55.259Z,25.93
2018-05-17T13:09:21.446Z,26.13
2018-05-17T13:11:47.679Z,26.30
2018-05-17T13:14:13.930Z,24.70
2018-05-17T13:16:40.186Z,22.20
2018-05-17T13:19:06.455Z,22.10
2018-05-17T13:21:32.682Z,20.60
2018-05-17T13:23:58.984Z,20.83
2018-05-17T13:26:25.213Z,19.93
2018-05-17T13:28:51.449Z,21.00
2018-05-17T13:31:17.734Z,20.23
2018-05-17T13:33:43.974Z,21.33
2018-05-17T13:36:10.206Z,20.13
2018-05-17T13:38:36.454Z,20.80
2018-05-17T13:41:02.682Z,21.37
2018-05-17T13:43:28.906Z,21.33
2018-05-17T13:45:55.162Z,25.20
2018-05-17T13:48:21.403Z,24.97
2018-05-17T13:50:47.638Z,24.77
2018-05-17T13:53:13.930Z,21.90
2018-05-17T13:55:40.277Z,22.53
2018-05-17T13:58:06.471Z,22.77
2018-05-17T14:00:32.736Z,22.17
2018-05-17T14:02:59.014Z,21.80
2018-05-17T14:05:25.234Z,20.50
2018-05-17T14:07:51.489Z,20.50
2018-05-17T14:10:17.794Z,19.70
2018-05-17T14:12:44.011Z,18.13
2018-05-17T14:15:10.361Z,20.40
2018-05-17T14:17:36.542Z,20.70
2018-05-17T14:20:02.806Z,21.57
2018-05-17T14:22:29.074Z,21.37
2018-05-17T14:24:55.320Z,23.03
2018-05-17T14:27:21.556Z,21.47
2018-05-17T14:29:47.839Z,22.27
2018-05-17T14:32:14.089Z,21.73
2018-05-17T14:34:40.318Z,20.37
2018-05-17T14:37:06.570Z,19.67
2018-05-17T14:39:32.794Z,20.17
2018-05-17T14:41:59.058Z,20.73
2018-05-17T14:44:25.314Z,19.60
2018-05-17T14:46:51.578Z,19.53
2018-05-17T14:49:17.807Z,21.00
2018-05-17T14:51:44.070Z,18.93
2018-05-17T14:54:10.299Z,18.17
2018-05-17T14:56:36.539Z,19.03
2018-05-17T14:59:02.835Z,18.30
2018-05-17T15:01:29.079Z,18.20
2018-05-17T15:03:55.302Z,19.23
2018-05-17T15:06:21.599Z,18.20
2018-05-17T15:08:47.950Z,19.10
2018-05-17T15:11:14.965Z,18.13
2018-05-17T15:13:41.402Z,19.00
2018-05-17T15:16:08.064Z,18.70
2018-05-17T15:18:34.471Z,18.83
2018-05-17T15:21:00.727Z,17.47
2018-05-17T15:23:26.971Z,18.60
2018-05-17T15:25:53.191Z,17.90
2018-05-17T15:28:19.481Z,18.97
2018-05-17T15:30:45.742Z,18.83
2018-05-17T15:33:11.999Z,20.17
2018-05-17T15:35:38.266Z,21.07
2018-05-17T15:38:04.502Z,22.43
2018-05-17T15:40:30.726Z,23.13
2018-05-17T15:42:57.019Z,23.43
2018-05-17T15:45:23.270Z,23.03
2018-05-17T15:47:49.513Z,23.17
2018-05-17T15:50:15.791Z,23.10
2018-05-17T15:52:42.026Z,21.20
2018-05-17T15:55:08.247Z,21.37
2018-05-17T15:57:34.517Z,22.10
2018-05-17T16:00:00.830Z,20.60
2018-05-17T16:02:27.075Z,19.77
2018-05-17T16:04:53.331Z,20.13
2018-05-17T16:07:19.584Z,20.67
2018-05-17T16:09:45.825Z,21.00
2018-05-17T16:12:12.135Z,19.27
2018-05-17T16:14:38.408Z,21.40
2018-05-17T16:17:04.743Z,20.70
2018-05-17T16:19:31.244Z,20.13
2018-05-17T16:21:57.505Z,19.53
2018-05-17T16:24:23.724Z,19.57
2018-05-17T16:26:49.991Z,20.13
2018-05-17T16:29:16.283Z,20.43
2018-05-17T16:31:42.522Z,19.47
2018-05-17T16:34:08.780Z,18.53
2018-05-17T16:36:35.070Z,20.97
2018-05-17T16:39:01.363Z,19.67
2018-05-17T16:41:27.651Z,20.43
2018-05-17T16:43:53.903Z,19.00
2018-05-17T16:46:20.198Z,19.83
2018-05-17T16:48:46.539Z,19.33
2018-05-17T16:51:12.782Z,18.43
2018-05-17T16:53:39.067Z,18.27
2018-05-17T16:56:05.335Z,17.80
2018-05-17T16:58:31.615Z,18.17
2018-05-17T17:00:57.886Z,16.37
2018-05-17T17:03:24.229Z,17.30
2018-05-17T17:05:50.466Z,15.77
2018-05-17T17:08:16.718Z,17.40
2018-05-17T17:10:43.034Z,16.33
2018-05-17T17:13:09.267Z,16.80
2018-05-17T17:15:35.522Z,15.90
2018-05-17T17:18:01.786Z,16.67
2018-05-17T17:20:28.055Z,16.83
2018-05-17T17:22:54.314Z,16.17
2018-05-17T17:25:20.562Z,16.13
2018-05-17T17:27:46.807Z,14.23
2018-05-17T17:30:13.043Z,15.57
2018-05-17T17:32:39.330Z,16.03
2018-05-17T17:35:05.578Z,15.87
2018-05-17T17:37:31.815Z,15.53
2018-05-17T17:39:58.077Z,14.87
2018-05-17T17:42:24.315Z,14.50
2018-05-17T17:44:50.543Z,13.67
2018-05-17T17:47:16.813Z,14.40
2018-05-17T17:49:43.091Z,13.70
2018-05-17T17:52:09.319Z,15.37
2018-05-17T17:54:35.582Z,14.63
2018-05-17T17:57:01.835Z,14.30
2018-05-17T17:59:28.098Z,13.70
2018-05-17T18:01:54.361Z,14.37
2018-05-17T18:04:20.604Z,12.93
2018-05-17T18:06:46.863Z,14.37
2018-05-17T18:09:13.158Z,12.40
2018-05-17T18:11:39.782Z,13.03
2018-05-17T18:14:06.011Z,11.77
2018-05-17T18:16:32.269Z,11.17
2018-05-17T18:18:58.502Z,11.90
2018-05-17T18:21:24.718Z,12.70
2018-05-17T18:23:50.970Z,12.30
2018-05-17T18:26:17.199Z,11.00
2018-05-17T18:28:43.502Z,10.90
2018-05-17T18:31:09.750Z,11.00
2018-05-17T18:33:35.981Z,10.97
2018-05-17T18:36:02.256Z,10.43
2018-05-17T18:38:28.518Z,10.70
2018-05-17T18:40:54.762Z,11.17
2018-05-17T18:43:20.969Z,11.23
2018-05-17T18:45:47.627Z,12.03
2018-05-17T18:48:13.869Z,10.60
2018-05-17T18:50:40.155Z,11.17
2018-05-17T18:53:06.459Z,10.67
2018-05-17T18:55:32.738Z,11.20
2018-05-17T18:57:59.119Z,10.87
2018-05-17T19:00:25.418Z,11.10
2018-05-17T19:02:51.633Z,12.17
2018-05-17T19:05:17.998Z,11.80
2018-05-17T19:07:44.264Z,10.97
2018-05-17T19:10:10.518Z,10.80
2018-05-17T19:12:36.746Z,11.00
2018-05-17T19:15:03.035Z,11.23
2018-05-17T19:17:29.428Z,11.40
2018-05-17T19:19:55.650Z,10.67
2018-05-17T19:22:22.219Z,10.77
2018-05-17T19:24:48.492Z,11.70
2018-05-17T19:27:14.710Z,11.37
2018-05-17T19:29:40.978Z,11.83
2018-05-17T19:32:07.203Z,11.10
2018-05-17T19:34:33.496Z,11.67
2018-05-17T19:36:59.823Z,12.17
2018-05-17T19:39:26.086Z,10.97
2018-05-17T19:41:52.345Z,11.40
2018-05-17T19:44:18.622Z,10.57
2018-05-17T19:46:45.038Z,11.73
2018-05-17T19:49:11.258Z,12.37
2018-05-17T19:51:37.582Z,10.97
2018-05-17T19:54:03.815Z,11.83
2018-05-17T19:56:30.166Z,11.77
2018-05-17T19:58:56.615Z,13.37
2018-05-17T20:01:22.851Z,12.60
2018-05-17T20:03:49.074Z,11.30
2018-05-17T20:06:15.509Z,11.67
2018-05-17T20:08:41.746Z,11.83
2018-05-17T20:11:08.096Z,12.10
2018-05-17T20:13:34.459Z,12.67
2018-05-17T20:16:00.708Z,11.93
2018-05-17T20:18:27.107Z,12.50
2018-05-17T20:20:53.399Z,12.30
2018-05-17T20:23:19.646Z,11.37
2018-05-17T20:25:46.011Z,11.30
2018-05-17T20:28:12.424Z,12.40
2018-05-17T20:30:38.626Z,12.10
2018-05-17T20:33:05.198Z,13.47
2018-05-17T20:35:31.480Z,12.23
2018-05-17T20:37:57.824Z,11.67
2018-05-17T20:40:24.234Z,11.73
2018-05-17T20:42:50.494Z,12.33
2018-05-17T20:45:17.107Z,11.40
2018-05-17T20:47:43.365Z,12.13
2018-05-17T20:50:09.728Z,11.53
2018-05-17T20:52:36.113Z,12.50
2018-05-17T20:55:02.385Z,11.40
2018-05-17T20:57:29.034Z,11.30
2018-05-17T20:59:55.262Z,11.17
2018-05-17T21:02:21.634Z,12.37
2018-05-17T21:04:48.002Z,12.60
2018-05-17T21:07:14.275Z,11.33
2018-05-17T21:09:40.833Z,12.03
2018-05-17T21:12:07.118Z,11.67
2018-05-17T21:14:33.389Z,13.17
2018-05-17T21:16:59.882Z,12.33
2018-05-17T21:19:26.130Z,12.00
2018-05-17T21:21:52.672Z,11.90
2018-05-17T21:24:18.934Z,12.47
2018-05-17T21:26:45.214Z,12.30
2018-05-17T21:29:11.694Z,11.93
2018-05-17T21:31:37.922Z,12.67
2018-05-17T21:34:04.472Z,11.67
2018-05-17T21:36:30.803Z,12.23
2018-05-17T21:38:57.110Z,12.43
2018-05-17T21:41:23.637Z,12.10
2018-05-17T21:43:49.853Z,12.37
2018-05-17T21:46:16.420Z,12.67
2018-05-17T21:48:42.739Z,12.00
2018-05-17T21:51:08.971Z,12.10
2018-05-17T21:53:35.480Z,12.23
2018-05-17T21:56:01.781Z,12.60
2018-05-17T21:58:30.873Z,12.10
2018-05-17T22:00:57.165Z,13.07
2018-05-17T22:03:23.581Z,11.90
2018-05-17T22:05:49.799Z,11.93
2018-05-17T22:08:16.247Z,11.03
2018-05-17T22:10:42.550Z,12.03
2018-05-17T22:13:08.866Z,11.93
2018-05-17T22:15:35.272Z,11.63
2018-05-17T22:18:01.575Z,10.70
2018-05-17T22:20:28.015Z,12.43
2018-05-17T22:22:54.253Z,11.07
2018-05-17T22:25:20.554Z,11.80
2018-05-17T22:27:47.150Z,11.87
2018-05-17T22:30:13.370Z,10.53
2018-05-17T22:32:39.715Z,12.47
2018-05-17T22:35:06.041Z,10.80
2018-05-17T22:37:32.266Z,10.50
2018-05-17T22:39:58.950Z,10.57
2018-05-17T22:42:25.264Z,10.97
2018-05-17T22:44:51.576Z,10.70
2018-05-17T22:47:17.990Z,11.23
2018-05-17T22:49:44.232Z,11.40
2018-05-17T22:52:10.789Z,10.17
2018-05-17T22:54:37.098Z,10.40
2018-05-17T22:57:11.487Z,11.43
2018-05-17T22:59:37.780Z,10.60
2018-05-17T23:02:04.236Z,10.20
2018-05-17T23:04:30.502Z,10.30
2018-05-17T23:06:56.766Z,11.27
2018-05-17T23:09:23.283Z,11.10
2018-05-17T23:11:49.546Z,9.57
2018-05-17T23:14:16.017Z,10.70
2018-05-17T23:16:42.306Z,11.03
2018-05-17T23:19:08.541Z,12.83
2018-05-17T23:21:35.167Z,12.13
2018-05-17T23:24:01.387Z,11.80
2018-05-17T23:26:27.740Z,11.73
2018-05-17T23:28:54.162Z,12.27
2018-05-17T23:31:20.443Z,12.90
2018-05-17T23:33:47.074Z,12.63
2018-05-17T23:36:13.338Z,13.10
2018-05-17T23:38:39.784Z,12.40
2018-05-17T23:41:18.251Z,12.90
2018-05-17T23:43:44.511Z,12.70
2018-05-17T23:46:11.118Z,13.10
2018-05-17T23:48:37.392Z,20.73
2018-05-17T23:51:03.742Z,14.63
2018-05-17T23:53:30.048Z,14.10
2018-05-17T23:55:56.302Z,12.20
2018-05-17T23:58:22.859Z,13.47
